Time;durP1;ratioP1;P1;durP2;ratioP2;P2;SDS_P1;SDS_P2;PMS_P1;PMS_P2;Temp;Humidity;BMP_temperature;BMP_pressure;BME280_temperature;BME280_humidity;BME280_pressure;Samples;Min_cycle;Max_cycle;Signal;HPM_P1;HPM_P2
2023/05/20 00:00:27;;;;;;;2.67;1.80;;;;;;;12.60;63.59;101743.63;4999070;28;20211;-80
2023/05/20 00:02:54;;;;;;;2.33;1.73;;;;;;;12.57;63.73;101743.78;5006472;28;20198;-80
2023/05/20 00:05:20;;;;;;;2.43;1.70;;;;;;;12.52;64.05;101747.59;5008217;28;20799;-81
2023/05/20 00:07:47;;;;;;;2.83;1.90;;;;;;;12.50;64.10;101753.97;5011757;28;20416;-80
2023/05/20 00:10:13;;;;;;;2.67;1.70;;;;;;;12.46;64.13;101747.03;5010662;28;20659;-80
2023/05/20 00:12:39;;;;;;;3.37;1.70;;;;;;;12.42;64.36;101746.34;5004728;28;20203;-80
2023/05/20 00:15:10;;;;;;;2.20;1.40;;;;;;;12.37;64.28;101743.03;4996712;28;20581;-80
2023/05/20 00:17:37;;;;;;;3.43;1.77;;;;;;;12.34;64.52;101743.22;5002723;28;20226;-80
2023/05/20 00:20:04;;;;;;;2.73;1.63;;;;;;;12.32;64.58;101750.47;5001269;28;20219;-80
2023/05/20 00:22:31;;;;;;;2.10;1.70;;;;;;;12.31;64.89;101745.19;5011942;28;20215;-80
2023/05/20 00:24:58;;;;;;;4.77;1.67;;;;;;;12.28;64.76;101742.69;5014535;28;20217;-80
2023/05/20 00:27:24;;;;;;;2.57;1.57;;;;;;;12.26;65.04;101742.75;5012910;28;20209;-80
2023/05/20 00:29:51;;;;;;;2.63;1.70;;;;;;;12.24;65.02;101746.44;5009178;28;20221;-81
2023/05/20 00:32:18;;;;;;;4.57;1.67;;;;;;;12.22;65.05;101746.53;5008176;28;20216;-80
2023/05/20 00:34:55;;;;;;;2.57;1.70;;;;;;;12.18;64.84;101739.66;5003036;28;20214;-81
2023/05/20 00:37:21;;;;;;;5.90;2.00;;;;;;;12.15;64.92;101739.81;5014481;28;20226;-81
2023/05/20 00:39:48;;;;;;;4.20;1.77;;;;;;;12.11;65.04;101731.09;5008537;28;20610;-80
2023/05/20 00:42:19;;;;;;;2.43;1.60;;;;;;;12.07;65.17;101720.63;5015341;28;20243;-80
2023/05/20 00:44:46;;;;;;;5.73;1.80;;;;;;;12.04;65.25;101718.13;5008462;28;20226;-80
2023/05/20 00:47:13;;;;;;;3.27;1.70;;;;;;;12.03;65.49;101721.72;5009295;28;20736;-80
2023/05/20 00:49:41;;;;;;;5.00;1.90;;;;;;;11.99;65.37;101726.41;5004216;28;20678;-80
2023/05/20 00:52:08;;;;;;;3.70;1.80;;;;;;;11.96;65.58;101725.69;5011211;28;20201;-80
2023/05/20 00:54:34;;;;;;;5.20;1.97;;;;;;;11.92;65.58;101730.31;5008292;28;20210;-80
2023/05/20 00:57:02;;;;;;;3.53;1.90;;;;;;;11.89;66.00;101726.94;5016081;28;20239;-81
2023/05/20 00:59:29;;;;;;;2.53;1.90;;;;;;;11.87;66.27;101726.16;5012696;28;20233;-80
2023/05/20 01:01:56;;;;;;;4.73;2.40;;;;;;;11.85;66.49;101725.34;5008811;28;20211;-81
2023/05/20 01:04:24;;;;;;;2.77;2.20;;;;;;;11.83;66.40;101728.97;5010418;28;20206;-80
2023/05/20 01:06:51;;;;;;;2.33;1.70;;;;;;;11.82;66.71;101724.56;5007801;28;20241;-80
2023/05/20 01:09:18;;;;;;;3.03;1.70;;;;;;;11.80;67.06;101729.16;5013370;28;20199;-80
2023/05/20 01:11:51;;;;;;;2.40;1.80;;;;;;;11.79;66.98;101732.75;5008775;28;20206;-80
2023/05/20 01:14:20;;;;;;;2.27;1.77;;;;;;;11.77;67.29;101728.44;5011616;28;20200;-80
2023/05/20 01:16:50;;;;;;;2.93;2.10;;;;;;;11.73;67.53;101722.34;5010450;28;20226;-80
2023/05/20 01:19:26;;;;;;;4.20;1.97;;;;;;;11.71;67.51;101726.03;5002075;28;20647;-81
2023/05/20 01:21:56;;;;;;;2.50;1.67;;;;;;;11.69;67.81;101718.09;5007325;28;20213;-81
2023/05/20 01:24:24;;;;;;;2.13;1.93;;;;;;;11.67;67.88;101720.00;5006018;28;20579;-81
2023/05/20 01:26:50;;;;;;;2.10;1.67;;;;;;;11.66;68.07;101718.25;5008438;28;20329;-81
2023/05/20 01:29:17;;;;;;;2.43;2.07;;;;;;;11.63;68.16;101717.56;5004692;28;20204;-80
2023/05/20 01:31:47;;;;;;;4.53;1.83;;;;;;;11.60;68.38;101712.41;5009958;28;20209;-80
2023/05/20 01:34:13;;;;;;;3.53;2.07;;;;;;;11.57;68.54;101715.22;5005824;28;20568;-80
2023/05/20 01:36:41;;;;;;;2.93;1.70;;;;;;;11.54;68.71;101723.38;5015001;28;20228;-81
2023/05/20 01:39:08;;;;;;;3.07;1.93;;;;;;;11.52;68.91;101723.44;5011816;28;20229;-81
2023/05/20 01:41:37;;;;;;;3.27;2.10;;;;;;;11.51;68.67;101716.38;5005438;28;20648;-80
2023/05/20 01:44:03;;;;;;;2.90;2.10;;;;;;;11.48;69.00;101706.72;5008371;28;20238;-80
2023/05/20 01:46:32;;;;;;;3.27;2.10;;;;;;;11.46;68.96;101707.75;5004279;28;20246;-80
2023/05/20 01:48:59;;;;;;;3.07;2.07;;;;;;;11.43;69.20;101707.91;5007428;28;20209;-80
2023/05/20 01:51:25;;;;;;;2.67;1.80;;;;;;;11.40;69.20;101705.38;5021271;28;20203;-80
2023/05/20 01:53:52;;;;;;;3.07;2.20;;;;;;;11.37;69.45;101705.53;5009476;28;20208;-80
2023/05/20 01:56:18;;;;;;;2.20;1.90;;;;;;;11.33;69.38;101704.81;5007777;28;20568;-81
2023/05/20 01:58:46;;;;;;;2.80;2.00;;;;;;;11.31;69.80;101706.69;5010525;28;20236;-80
2023/05/20 02:01:12;;;;;;;3.03;2.10;;;;;;;11.30;69.92;101701.44;5016300;28;20215;-80
2023/05/20 02:03:39;;;;;;;4.00;2.10;;;;;;;11.27;70.20;101706.94;5014117;28;20211;-81
2023/05/20 02:06:05;;;;;;;2.60;2.10;;;;;;;11.27;70.32;101704.28;5005708;28;20245;-81
2023/05/20 02:08:32;;;;;;;2.83;2.00;;;;;;;11.24;70.38;101705.28;5005912;28;20211;-80
2023/05/20 02:10:58;;;;;;;2.10;1.90;;;;;;;11.23;70.83;101708.91;5005802;28;20209;-80
2023/05/20 02:13:25;;;;;;;3.00;1.87;;;;;;;11.21;71.16;101702.78;5000790;28;20226;-80
2023/05/20 02:15:52;;;;;;;3.83;2.07;;;;;;;11.20;71.59;101705.50;5007493;28;20235;-80
2023/05/20 02:18:19;;;;;;;2.37;2.07;;;;;;;11.19;71.59;101701.97;5006393;28;20229;-81
2023/05/20 02:20:45;;;;;;;5.73;2.10;;;;;;;11.20;71.72;101710.84;5010664;28;20207;-81
2023/05/20 02:23:12;;;;;;;4.00;2.20;;;;;;;11.20;71.74;101708.16;5007919;28;20215;-80
2023/05/20 02:25:38;;;;;;;2.77;1.80;;;;;;;11.19;71.88;101709.13;5007360;28;20232;-81
2023/05/20 02:28:09;;;;;;;2.70;1.90;;;;;;;11.19;72.03;101709.13;5009705;28;20971;-81
2023/05/20 02:30:36;;;;;;;2.67;1.87;;;;;;;11.19;72.19;101717.09;5010185;28;20768;-80
2023/05/20 02:33:03;;;;;;;3.50;2.30;;;;;;;11.18;72.34;101708.25;5011665;28;20208;-80
2023/05/20 02:35:30;;;;;;;3.43;2.30;;;;;;;11.18;72.27;101707.38;5006253;28;20236;-81
2023/05/20 02:37:56;;;;;;;3.97;2.30;;;;;;;11.15;72.47;101711.06;5016544;28;20209;-81
2023/05/20 02:40:23;;;;;;;3.43;2.10;;;;;;;11.14;72.57;101698.66;5004816;28;20212;-80
2023/05/20 02:42:49;;;;;;;4.47;2.30;;;;;;;11.13;72.93;101699.59;5006482;28;20212;-80
2023/05/20 02:45:16;;;;;;;3.53;2.63;;;;;;;11.13;72.91;101700.47;5010813;28;20220;-80
2023/05/20 02:47:43;;;;;;;2.77;2.37;;;;;;;11.13;73.11;101694.28;5012677;28;20212;-81
2023/05/20 02:50:11;;;;;;;5.10;2.40;;;;;;;11.14;73.19;101704.00;5011149;28;21356;-80
2023/05/20 02:52:38;;;;;;;2.90;2.53;;;;;;;11.13;73.31;101708.47;5011452;28;20221;-80
2023/05/20 02:55:06;;;;;;;2.37;2.13;;;;;;;11.13;73.31;101708.47;5001050;28;20249;-80
2023/05/20 02:57:35;;;;;;;4.03;2.40;;;;;;;11.13;73.85;101708.47;5002760;28;20273;-80
2023/05/20 03:00:03;;;;;;;3.77;2.53;;;;;;;11.16;73.64;101710.13;5004152;28;20223;-80
2023/05/20 03:02:30;;;;;;;3.37;2.37;;;;;;;11.16;73.86;101703.94;5012292;28;20214;-80
2023/05/20 03:04:56;;;;;;;3.33;2.27;;;;;;;11.18;73.88;101702.06;5011376;28;20203;-80
2023/05/20 03:07:24;;;;;;;6.33;2.80;;;;;;;11.18;74.12;101702.06;5004338;28;20628;-80
2023/05/20 03:09:51;;;;;;;3.50;2.50;;;;;;;11.17;73.99;101709.19;5004958;28;20203;-80
2023/05/20 03:12:18;;;;;;;2.83;2.53;;;;;;;11.19;74.08;101714.44;5019740;28;20206;-80
2023/05/20 03:14:44;;;;;;;3.03;2.53;;;;;;;11.19;74.28;101709.13;5006825;28;20211;-80
2023/05/20 03:17:11;;;;;;;4.07;2.50;;;;;;;11.21;74.32;101700.09;5006523;28;20231;-80
2023/05/20 03:19:37;;;;;;;4.27;2.40;;;;;;;11.23;74.05;101697.38;5013604;28;20222;-81
2023/05/20 03:22:04;;;;;;;3.40;2.30;;;;;;;11.22;74.51;101695.63;5009170;28;20659;-81
2023/05/20 03:24:32;;;;;;;3.47;2.10;;;;;;;11.22;74.31;101701.84;5008816;28;20209;-81
2023/05/20 03:26:58;;;;;;;3.50;2.37;;;;;;;11.24;74.26;101701.75;4999661;28;20259;-80
2023/05/20 03:29:25;;;;;;;2.17;1.97;;;;;;;11.25;74.45;101703.50;5008208;28;20201;-80
2023/05/20 03:31:51;;;;;;;3.70;2.17;;;;;;;11.27;74.38;101701.63;5007109;28;20207;-81
2023/05/20 03:34:17;;;;;;;3.40;2.40;;;;;;;11.28;74.22;101700.69;5005129;28;20207;-81
2023/05/20 03:36:45;;;;;;;6.03;2.47;;;;;;;11.29;74.33;101702.38;5002696;28;20603;-80
2023/05/20 03:39:11;;;;;;;3.40;2.30;;;;;;;11.30;74.23;101696.09;5006233;28;20315;-82
2023/05/20 03:41:39;;;;;;;3.70;2.50;;;;;;;11.30;74.30;101694.28;5010225;28;20213;-80
2023/05/20 03:44:06;;;;;;;4.10;2.27;;;;;;;11.30;74.37;101698.75;5002314;28;20270;-80
2023/05/20 03:46:33;;;;;;;3.77;2.50;;;;;;;11.29;74.44;101694.38;5010202;28;20235;-80
2023/05/20 03:49:00;;;;;;;3.13;2.50;;;;;;;11.31;74.31;101704.03;5006015;28;20202;-80
2023/05/20 03:51:27;;;;;;;3.77;2.40;;;;;;;11.30;74.22;101699.63;5001506;28;20627;-81
2023/05/20 03:53:53;;;;;;;3.10;2.30;;;;;;;11.31;74.17;101701.34;5007084;28;20875;-81
2023/05/20 03:56:20;;;;;;;2.70;2.20;;;;;;;11.30;74.14;101699.63;5004298;28;20227;-81
2023/05/20 03:58:47;;;;;;;3.23;2.13;;;;;;;11.30;74.16;101704.97;5007697;28;20229;-81
2023/05/20 04:01:16;;;;;;;3.27;2.57;;;;;;;11.30;74.13;101706.75;5010366;28;20908;-81
2023/05/20 04:03:43;;;;;;;3.17;2.37;;;;;;;11.30;74.26;101704.09;5006217;28;20263;-82
2023/05/20 04:06:10;;;;;;;3.37;2.10;;;;;;;11.32;74.20;101707.56;5006503;28;20715;-81
2023/05/20 04:08:37;;;;;;;3.10;2.63;;;;;;;11.32;74.17;101702.22;5003582;28;20208;-81
2023/05/20 04:11:03;;;;;;;3.87;2.60;;;;;;;11.31;74.20;101701.34;5005395;28;20336;-81
2023/05/20 04:13:30;;;;;;;4.73;2.30;;;;;;;11.32;74.17;101696.88;5007012;28;20214;-81
2023/05/20 04:15:58;;;;;;;4.00;2.23;;;;;;;11.33;74.19;101701.28;5010223;28;20229;-81
2023/05/20 04:18:28;;;;;;;4.30;2.40;;;;;;;11.32;74.39;101704.88;5011765;28;20556;-81
2023/05/20 04:20:55;;;;;;;2.97;2.20;;;;;;;11.34;74.08;101697.69;5008754;28;20203;-81
2023/05/20 04:23:21;;;;;;;4.90;2.70;;;;;;;11.36;74.18;101706.47;5013356;28;20200;-81
2023/05/20 04:25:48;;;;;;;2.67;2.27;;;;;;;11.37;74.08;101695.72;5009815;28;20242;-81
2023/05/20 04:28:15;;;;;;;3.83;2.23;;;;;;;11.38;74.19;101693.94;5010046;28;20566;-81
2023/05/20 04:30:41;;;;;;;3.57;2.13;;;;;;;11.39;74.10;101695.66;5008830;28;20681;-80
2023/05/20 04:33:10;;;;;;;3.93;2.13;;;;;;;11.40;74.09;101694.72;5006852;28;20747;-80
2023/05/20 04:35:40;;;;;;;4.80;2.20;;;;;;;11.40;74.14;101697.38;5009498;28;20697;-80
2023/05/20 04:38:07;;;;;;;4.00;2.17;;;;;;;11.40;74.15;101695.59;5005500;28;20211;-81
2023/05/20 04:40:33;;;;;;;3.33;2.47;;;;;;;11.41;74.13;101688.44;5008793;28;20247;-80
2023/05/20 04:43:00;;;;;;;3.33;2.17;;;;;;;11.41;74.38;101683.13;5007732;28;20215;-80
2023/05/20 04:45:27;;;;;;;4.40;2.53;;;;;;;11.42;74.10;101687.50;5008696;28;20232;-80
2023/05/20 04:47:53;;;;;;;4.00;2.50;;;;;;;11.44;74.08;101686.50;5008491;28;20231;-80
2023/05/20 04:50:21;;;;;;;3.60;2.50;;;;;;;11.45;74.11;101684.69;5007560;28;20199;-80
2023/05/20 04:52:48;;;;;;;3.27;2.40;;;;;;;11.46;74.04;101683.75;5007667;28;20209;-80
2023/05/20 04:55:14;;;;;;;4.47;2.87;;;;;;;11.48;74.13;101687.19;5007535;28;20319;-80
2023/05/20 04:57:41;;;;;;;3.07;2.10;;;;;;;11.50;73.97;101703.97;5008298;28;20586;-80
2023/05/20 05:00:09;;;;;;;3.13;2.20;;;;;;;11.53;73.94;101702.97;5010007;28;20258;-80
2023/05/20 05:02:36;;;;;;;3.00;2.07;;;;;;;11.53;74.04;101692.28;4999417;28;20295;-80
2023/05/20 05:05:02;;;;;;;2.40;2.17;;;;;;;11.56;73.94;101701.00;5011974;28;20211;-80
2023/05/20 05:07:30;;;;;;;3.80;2.33;;;;;;;11.56;73.85;101695.66;5008349;28;20212;-80
2023/05/20 05:09:57;;;;;;;4.57;2.70;;;;;;;11.58;73.92;101699.13;5005697;28;20218;-80
2023/05/20 05:12:23;;;;;;;2.90;2.20;;;;;;;11.59;73.73;101692.00;5006303;28;20609;-80
2023/05/20 05:14:50;;;;;;;4.97;2.47;;;;;;;11.58;73.71;101696.47;5007931;28;20631;-80
2023/05/20 05:17:16;;;;;;;6.30;2.63;;;;;;;11.58;73.73;101693.78;5007191;28;20314;-80
2023/05/20 05:19:43;;;;;;;4.13;2.60;;;;;;;11.60;73.89;101697.25;5008202;28;20241;-81
2023/05/20 05:22:09;;;;;;;4.70;2.27;;;;;;;11.63;73.90;101701.56;5002326;28;20216;-80
2023/05/20 05:24:38;;;;;;;4.50;2.23;;;;;;;11.65;73.88;101695.19;5009882;28;20200;-80
2023/05/20 05:27:05;;;;;;;3.47;2.40;;;;;;;11.67;74.03;101695.97;5001975;28;20244;-80
2023/05/20 05:29:32;;;;;;;3.83;2.53;;;;;;;11.69;73.95;101695.91;5011705;28;20653;-81
2023/05/20 05:31:58;;;;;;;3.63;2.70;;;;;;;11.73;73.84;101693.00;5009624;28;20212;-80
2023/05/20 05:34:24;;;;;;;4.43;2.83;;;;;;;11.78;73.91;101695.47;5008711;28;20217;-81
2023/05/20 05:36:51;;;;;;;5.20;2.87;;;;;;;11.81;73.91;101698.84;5001920;28;20235;-81
2023/05/20 05:39:17;;;;;;;5.20;2.90;;;;;;;11.85;73.75;101691.53;5012580;28;20232;-81
2023/05/20 05:41:45;;;;;;;4.30;2.30;;;;;;;11.87;73.78;101688.78;5007238;28;20214;-80
2023/05/20 05:44:11;;;;;;;4.57;2.80;;;;;;;11.91;74.11;101690.34;5011861;28;20213;-81
2023/05/20 05:46:38;;;;;;;6.37;2.87;;;;;;;11.93;73.79;101693.81;4997209;28;20249;-81
2023/05/20 05:49:04;;;;;;;3.67;2.63;;;;;;;11.97;74.12;101690.91;5007733;28;20226;-80
2023/05/20 05:51:31;;;;;;;3.17;2.63;;;;;;;12.00;74.11;101693.38;5013041;28;20209;-81
2023/05/20 05:53:57;;;;;;;7.40;3.70;;;;;;;12.03;74.26;101684.34;5005528;28;20214;-81
2023/05/20 05:56:24;;;;;;;3.97;3.00;;;;;;;12.11;74.49;101691.03;5004913;28;20237;-80
2023/05/20 05:58:52;;;;;;;4.10;3.40;;;;;;;12.15;74.21;101694.41;5005331;28;20211;-80
2023/05/20 06:01:18;;;;;;;4.27;3.30;;;;;;;12.20;74.56;101688.78;5006481;28;20234;-80
2023/05/20 06:03:44;;;;;;;4.47;3.40;;;;;;;12.24;74.67;101683.22;5005331;28;20218;-80
2023/05/20 06:06:11;;;;;;;4.30;3.60;;;;;;;12.28;74.52;101687.47;5005276;28;20227;-80
2023/05/20 06:08:37;;;;;;;3.97;3.50;;;;;;;12.34;74.67;101681.78;5007690;28;20214;-80
2023/05/20 06:11:04;;;;;;;5.27;3.70;;;;;;;12.40;74.86;101683.25;5004642;28;20663;-80
2023/05/20 06:13:30;;;;;;;4.33;3.93;;;;;;;12.49;75.35;101688.97;5007216;28;20642;-80
2023/05/20 06:15:58;;;;;;;4.70;3.90;;;;;;;12.60;75.45;101690.16;5006721;28;20594;-81
2023/05/20 06:18:25;;;;;;;4.73;4.20;;;;;;;12.70;75.31;101691.41;5009150;28;20785;-81
2023/05/20 06:20:55;;;;;;;4.50;3.90;;;;;;;12.80;74.55;101687.25;5002499;28;20234;-81
2023/05/20 06:23:21;;;;;;;4.70;3.90;;;;;;;12.87;73.82;101691.31;5005297;28;20206;-81
2023/05/20 06:25:48;;;;;;;5.20;3.83;;;;;;;12.91;73.41;101700.88;4999169;28;20612;-80
2023/05/20 06:28:14;;;;;;;4.67;3.80;;;;;;;12.97;72.78;101692.50;4999787;28;20757;-80
2023/05/20 06:30:41;;;;;;;4.47;3.73;;;;;;;13.03;72.61;101694.84;5004390;28;20671;-81
2023/05/20 06:33:10;;;;;;;4.80;3.93;;;;;;;13.10;72.94;101685.50;5019542;28;20199;-81
2023/05/20 06:35:36;;;;;;;4.40;4.00;;;;;;;13.16;72.08;101687.88;5011856;28;20233;-82
2023/05/20 06:38:03;;;;;;;4.47;3.97;;;;;;;13.20;71.87;101688.56;5013560;28;20208;-82
2023/05/20 06:40:29;;;;;;;4.30;3.53;;;;;;;13.24;71.56;101684.75;5003998;28;20220;-81
2023/05/20 06:42:56;;;;;;;4.60;4.03;;;;;;;13.29;72.08;101673.78;5005839;28;20211;-80
2023/05/20 06:45:22;;;;;;;5.90;4.07;;;;;;;13.32;71.80;101679.81;5005148;28;20203;-80
2023/05/20 06:47:49;;;;;;;7.10;4.07;;;;;;;13.37;71.26;101682.22;5014690;28;20203;-79
2023/05/20 06:50:17;;;;;;;6.13;4.67;;;;;;;13.39;70.68;101681.19;5006481;28;20204;-80
2023/05/20 06:52:43;;;;;;;8.47;4.23;;;;;;;13.39;70.86;101686.53;5006301;28;20220;-80
2023/05/20 06:55:10;;;;;;;8.07;4.50;;;;;;;13.39;70.45;101685.69;5002780;28;20221;-80
2023/05/20 06:57:37;;;;;;;4.57;4.17;;;;;;;13.40;70.58;101679.38;5006962;28;20211;-80
2023/05/20 07:00:04;;;;;;;6.33;3.87;;;;;;;13.48;71.85;101677.09;5000929;28;20676;-81
2023/05/20 07:02:33;;;;;;;4.90;4.30;;;;;;;13.58;71.70;101670.25;5005484;28;20202;-81
2023/05/20 07:04:59;;;;;;;4.87;4.00;;;;;;;13.64;70.90;101669.00;5006690;28;20303;-81
2023/05/20 07:07:27;;;;;;;6.23;4.00;;;;;;;13.65;70.43;101660.88;5013372;28;20351;-80
2023/05/20 07:09:55;;;;;;;6.07;4.10;;;;;;;13.64;70.20;101659.16;5005363;28;20200;-81
2023/05/20 07:12:21;;;;;;;6.13;4.30;;;;;;;13.61;69.82;101654.03;5007005;28;20223;-80
2023/05/20 07:14:48;;;;;;;5.93;4.33;;;;;;;13.56;69.77;101658.78;5002670;28;20203;-80
2023/05/20 07:17:14;;;;;;;6.80;4.27;;;;;;;13.53;70.25;101656.28;5005981;28;20700;-81
2023/05/20 07:19:41;;;;;;;5.77;4.80;;;;;;;13.52;70.70;101655.41;5009051;28;20671;-80
2023/05/20 07:22:07;;;;;;;5.70;4.50;;;;;;;13.51;70.42;101659.03;5007526;28;20199;-80
2023/05/20 07:24:36;;;;;;;5.57;4.47;;;;;;;13.49;70.54;101660.09;5005707;28;20203;-81
2023/05/20 07:27:02;;;;;;;5.53;3.93;;;;;;;13.50;70.75;101665.34;5009089;28;20219;-80
2023/05/20 07:29:29;;;;;;;4.63;3.93;;;;;;;13.52;71.02;101659.91;5009343;28;20207;-81
2023/05/20 07:31:55;;;;;;;6.50;4.67;;;;;;;13.54;71.23;101652.66;5006586;28;20210;-80
2023/05/20 07:34:22;;;;;;;5.07;4.40;;;;;;;13.60;71.65;101659.47;5008381;28;20203;-80
2023/05/20 07:36:50;;;;;;;4.87;4.27;;;;;;;13.64;71.94;101648.47;5008552;28;20379;-80
2023/05/20 07:39:16;;;;;;;5.90;4.77;;;;;;;13.72;72.05;101648.88;5006096;28;20548;-80
2023/05/20 07:41:44;;;;;;;5.00;4.50;;;;;;;13.80;71.76;101649.25;5007907;28;20226;-81
2023/05/20 07:44:12;;;;;;;5.10;4.30;;;;;;;13.88;71.87;101654.16;5007109;28;20786;-80
2023/05/20 07:46:39;;;;;;;6.00;4.63;;;;;;;13.94;71.59;101655.59;5007254;28;20251;-81
2023/05/20 07:49:05;;;;;;;7.20;4.73;;;;;;;14.00;71.83;101663.25;5005002;28;20216;-81
2023/05/20 07:51:32;;;;;;;5.20;4.57;;;;;;;14.08;71.71;101658.28;4998915;28;20207;-81
2023/05/20 07:53:58;;;;;;;5.13;4.43;;;;;;;14.14;72.06;101655.22;5005448;28;20443;-80
2023/05/20 07:56:25;;;;;;;7.33;5.17;;;;;;;14.20;72.63;101654.84;5006136;28;20231;-81
2023/05/20 07:58:55;;;;;;;8.43;5.30;;;;;;;14.26;72.59;101646.41;5004167;28;20254;-81
2023/05/20 08:01:22;;;;;;;5.63;4.53;;;;;;;14.32;71.89;101639.81;5000141;28;20234;-80
2023/05/20 08:03:48;;;;;;;6.63;5.40;;;;;;;14.34;71.77;101643.25;5009229;28;20213;-80
2023/05/20 08:06:15;;;;;;;7.30;5.67;;;;;;;14.36;71.31;101642.19;5004039;28;20236;-80
2023/05/20 08:08:42;;;;;;;5.60;5.10;;;;;;;14.37;71.39;101638.56;4994859;28;21238;-81
2023/05/20 08:11:09;;;;;;;7.43;6.10;;;;;;;14.40;70.99;101642.84;5014236;28;20697;-81
2023/05/20 08:13:36;;;;;;;7.87;5.60;;;;;;;14.42;70.79;101644.53;5000491;28;20199;-81
2023/05/20 08:16:04;;;;;;;6.57;5.97;;;;;;;14.41;70.29;101649.97;5004272;28;20764;-80
2023/05/20 08:18:31;;;;;;;6.83;5.80;;;;;;;14.39;69.85;101651.84;5005165;28;20209;-80
2023/05/20 08:20:58;;;;;;;6.93;6.00;;;;;;;14.38;70.43;101645.63;5005566;28;20765;-80
2023/05/20 08:23:24;;;;;;;7.13;6.30;;;;;;;14.39;70.49;101642.00;5004187;28;21030;-81
2023/05/20 08:25:51;;;;;;;8.33;6.30;;;;;;;14.40;70.56;101646.44;5008239;28;20231;-81
2023/05/20 08:28:18;;;;;;;8.77;6.03;;;;;;;14.41;70.55;101640.13;5003100;28;20203;-80
2023/05/20 08:30:44;;;;;;;9.53;6.57;;;;;;;14.43;70.42;101640.88;5006050;28;20203;-81
2023/05/20 08:33:12;;;;;;;8.30;6.30;;;;;;;14.44;69.78;101637.25;5004330;28;20207;-80
2023/05/20 08:35:39;;;;;;;7.47;6.73;;;;;;;14.42;69.89;101638.31;5001381;28;20239;-81
2023/05/20 08:38:06;;;;;;;8.20;6.80;;;;;;;14.41;70.08;101640.13;5003496;28;20211;-81
2023/05/20 08:40:34;;;;;;;7.17;6.30;;;;;;;14.40;70.24;101638.41;5010312;28;20223;-80
2023/05/20 08:43:01;;;;;;;7.10;6.40;;;;;;;14.44;70.33;101639.06;5007698;28;20215;-80
2023/05/20 08:45:32;;;;;;;7.53;6.60;;;;;;;14.47;70.77;101637.06;4999469;28;20237;-81
2023/05/20 08:47:58;;;;;;;7.90;6.27;;;;;;;14.51;70.55;101627.84;5011243;28;20207;-81
2023/05/20 08:50:26;;;;;;;8.27;6.50;;;;;;;14.53;70.84;101639.31;5010688;28;20202;-80
2023/05/20 08:52:53;;;;;;;8.43;6.20;;;;;;;14.56;70.48;101636.44;5005101;28;20234;-80
2023/05/20 08:55:25;;;;;;;7.50;6.63;;;;;;;14.62;70.99;101626.31;5010357;28;20651;-81
2023/05/20 08:57:53;;;;;;;6.83;6.10;;;;;;;14.65;70.42;101626.97;5009234;28;20200;-81
2023/05/20 09:00:22;;;;;;;8.20;6.07;;;;;;;14.68;70.54;101628.59;5008388;28;20262;-81
2023/05/20 09:02:50;;;;;;;7.70;6.33;;;;;;;14.68;70.28;101609.81;5014064;28;20889;-81
2023/05/20 09:05:17;;;;;;;8.83;6.70;;;;;;;14.68;70.15;101618.72;5011846;28;20291;-81
2023/05/20 09:07:45;;;;;;;6.80;6.20;;;;;;;14.71;69.81;101623.00;5007696;28;20297;-81
2023/05/20 09:10:12;;;;;;;8.57;6.73;;;;;;;14.74;69.89;101620.13;5015023;28;20210;-81
2023/05/20 09:12:39;;;;;;;8.10;5.77;;;;;;;14.79;70.63;101620.69;5015797;28;20218;-82
2023/05/20 09:15:07;;;;;;;6.37;5.30;;;;;;;14.88;70.33;101623.63;5008241;28;20211;-82
2023/05/20 09:17:35;;;;;;;6.57;5.00;;;;;;;14.97;70.21;101630.22;5006642;28;20219;-81
2023/05/20 09:20:03;;;;;;;7.50;4.93;;;;;;;15.04;69.03;101634.22;5006404;28;20766;-81
2023/05/20 09:22:29;;;;;;;5.87;4.80;;;;;;;15.09;68.35;101626.72;5011462;28;21074;-81
2023/05/20 09:24:57;;;;;;;4.83;4.33;;;;;;;15.16;67.13;101627.16;5006635;28;20593;-81
2023/05/20 09:27:24;;;;;;;5.73;4.40;;;;;;;15.24;67.69;101620.31;5011915;28;20692;-82
2023/05/20 09:29:51;;;;;;;8.90;4.63;;;;;;;15.39;67.76;101614.88;5006854;28;20247;-81
2023/05/20 09:32:22;;;;;;;4.87;4.33;;;;;;;15.56;67.85;101611.94;5009324;28;20212;-80
2023/05/20 09:34:49;;;;;;;4.63;4.10;;;;;;;15.68;66.62;101611.09;5005040;28;20212;-81
2023/05/20 09:37:18;;;;;;;4.73;3.83;;;;;;;15.76;65.92;101619.47;5006943;28;20327;-80
2023/05/20 09:39:56;;;;;;;5.33;3.63;;;;;;;15.88;66.47;101609.69;5005711;28;20229;-80
2023/05/20 09:42:27;;;;;;;4.20;3.70;;;;;;;16.01;65.92;101626.66;5004684;28;20220;-81
2023/05/20 09:44:55;;;;;;;5.13;4.00;;;;;;;16.12;65.15;101607.13;5004915;28;20244;-81
2023/05/20 09:47:21;;;;;;;5.33;4.17;;;;;;;16.22;64.87;101597.41;5007167;28;20245;-81
2023/05/20 09:49:50;;;;;;;5.50;4.10;;;;;;;16.39;64.60;101598.88;5008718;28;20204;-81
2023/05/20 09:52:17;;;;;;;5.43;4.00;;;;;;;16.56;64.21;101601.19;5004831;28;20198;-81
2023/05/20 09:54:45;;;;;;;4.93;3.87;;;;;;;16.67;63.41;101618.28;5008613;28;20225;-81
2023/05/20 09:57:12;;;;;;;4.87;3.33;;;;;;;16.75;62.26;101606.09;5007839;28;20230;-81
2023/05/20 09:59:41;;;;;;;5.40;4.10;;;;;;;16.83;62.59;101606.41;5002613;28;20307;-80
2023/05/20 10:02:08;;;;;;;5.47;3.80;;;;;;;16.88;61.35;101607.75;5005812;28;20230;-80
2023/05/20 10:04:38;;;;;;;3.93;3.47;;;;;;;16.88;60.92;101605.06;5011968;28;20205;-81
2023/05/20 10:07:22;;;;;;;4.07;3.60;;;;;;;16.90;61.02;101594.19;5000461;28;20439;-81
2023/05/20 10:09:59;;;;;;;4.87;3.80;;;;;;;16.89;60.18;101597.84;5009290;28;20206;-81
2023/05/20 10:12:33;;;;;;;4.53;4.13;;;;;;;16.90;60.71;101581.59;5006147;28;20202;-81
2023/05/20 10:15:10;;;;;;;4.30;3.83;;;;;;;16.89;60.66;101587.97;5001954;28;20217;-81
2023/05/20 10:17:44;;;;;;;4.40;3.77;;;;;;;16.88;61.25;101598.84;5005461;28;20211;-81
2023/05/20 10:20:11;;;;;;;4.20;3.80;;;;;;;16.86;59.95;101600.78;5000325;28;20674;-80
2023/05/20 10:22:39;;;;;;;4.23;3.57;;;;;;;16.82;60.49;101600.16;5006924;28;20235;-81
2023/05/20 10:25:07;;;;;;;4.53;3.30;;;;;;;16.83;60.84;101592.97;5002242;28;20211;-80
2023/05/20 10:27:44;;;;;;;4.27;3.77;;;;;;;16.83;60.99;101587.56;5005548;28;20203;-80
2023/05/20 10:30:19;;;;;;;5.00;3.20;;;;;;;16.87;61.34;101580.97;5005718;28;20222;-80
2023/05/20 10:32:52;;;;;;;5.40;4.20;;;;;;;16.91;61.02;101572.56;5005710;28;21555;-80
2023/05/20 10:35:22;;;;;;;4.10;3.70;;;;;;;16.98;60.68;101572.97;5003376;28;20635;-81
2023/05/20 10:37:48;;;;;;;5.93;4.30;;;;;;;17.07;61.16;101574.94;5003322;28;20221;-81
2023/05/20 10:40:18;;;;;;;5.43;3.40;;;;;;;17.15;61.06;101575.25;5009765;28;20221;-81
2023/05/20 10:42:46;;;;;;;4.10;3.70;;;;;;;17.22;60.44;101576.47;5002250;28;20233;-83
2023/05/20 10:45:27;;;;;;;3.57;3.27;;;;;;;17.25;59.96;101583.44;5004454;28;20231;-81
2023/05/20 10:47:54;;;;;;;3.47;3.10;;;;;;;17.26;60.22;101591.41;5005983;28;20237;-82
2023/05/20 10:50:27;;;;;;;3.60;3.30;;;;;;;17.27;59.73;101582.38;5006959;28;20210;-81
2023/05/20 10:52:53;;;;;;;3.70;3.00;;;;;;;17.23;59.32;101575.50;5003464;28;20698;-82
2023/05/20 10:55:22;;;;;;;5.43;3.37;;;;;;;17.21;59.52;101576.59;5003297;28;20206;-81
2023/05/20 10:57:48;;;;;;;4.23;3.73;;;;;;;17.17;59.36;101570.59;5007836;28;20210;-81
2023/05/20 11:00:17;;;;;;;4.67;3.70;;;;;;;17.15;59.39;101571.69;5000121;28;20216;-81
2023/05/20 11:02:45;;;;;;;3.90;3.40;;;;;;;17.10;59.46;101563.94;5001317;28;20708;-81
2023/05/20 11:05:13;;;;;;;4.63;3.50;;;;;;;17.06;59.06;101565.16;5010065;28;20254;-82
2023/05/20 11:07:40;;;;;;;3.73;3.43;;;;;;;17.03;59.75;101573.47;5007681;28;20207;-82
2023/05/20 11:10:09;;;;;;;4.07;3.13;;;;;;;17.02;60.18;101574.44;5006901;28;20218;-82
2023/05/20 11:12:36;;;;;;;3.90;3.50;;;;;;;16.98;60.09;101575.66;5004228;28;20846;-81
2023/05/20 11:15:03;;;;;;;4.40;3.73;;;;;;;16.97;60.18;101563.19;5009188;28;20209;-81
2023/05/20 11:17:30;;;;;;;5.60;3.77;;;;;;;16.97;60.31;101560.47;5003476;28;20233;-81
2023/05/20 11:19:59;;;;;;;5.40;3.67;;;;;;;16.98;59.97;101567.59;5007492;28;20600;-81
2023/05/20 11:22:26;;;;;;;4.00;3.60;;;;;;;16.97;59.46;101552.41;5007564;28;20233;-81
2023/05/20 11:24:52;;;;;;;3.97;3.47;;;;;;;16.92;59.81;101542.00;5007583;28;20235;-82